createdAt,value
2016-12-25T00:00:41.112Z,0
2016-12-25T00:01:39.953Z,0
2016-12-25T00:02:40.160Z,0
2016-12-25T00:03:39.563Z,0
2016-12-25T00:04:41.343Z,0
2016-12-25T00:05:39.677Z,0
2016-12-25T00:06:39.623Z,0
2016-12-25T00:07:39.625Z,0
2016-12-25T00:08:39.373Z,0
2016-12-25T00:09:39.906Z,0
2016-12-25T00:10:39.646Z,0
2016-12-25T00:11:39.821Z,0
2016-12-25T00:12:39.949Z,0
2016-12-25T00:13:39.976Z,0
2016-12-25T00:14:40.285Z,0
2016-12-25T00:15:41.352Z,0
2016-12-25T00:16:39.734Z,0
2016-12-25T00:17:40.254Z,0
2016-12-25T00:18:40.322Z,0
2016-12-25T00:19:39.653Z,0
2016-12-25T00:20:39.976Z,0
2016-12-25T00:21:39.662Z,0
2016-12-25T00:22:40.082Z,0
2016-12-25T00:23:39.418Z,0
2016-12-25T00:24:40.046Z,0
2016-12-25T00:25:40.512Z,0
2016-12-25T00:26:41.405Z,0
2016-12-25T00:27:39.389Z,0
2016-12-25T00:28:39.706Z,0
2016-12-25T00:29:40.077Z,0
2016-12-25T00:30:40.397Z,0
2016-12-25T00:31:40.354Z,0
2016-12-25T00:32:39.469Z,0
2016-12-25T00:33:40.419Z,0
2016-12-25T00:34:40.423Z,0
2016-12-25T00:35:39.756Z,0
2016-12-25T00:36:39.495Z,0
2016-12-25T00:37:40.967Z,0
2016-12-25T00:38:40.090Z,0
2016-12-25T00:39:40.190Z,0
2016-12-25T00:40:40.174Z,0
2016-12-25T00:41:39.794Z,0
2016-12-25T00:42:40.724Z,0
2016-12-25T00:43:39.855Z,0
2016-12-25T00:44:39.814Z,0
2016-12-25T00:45:39.871Z,0
2016-12-25T00:46:40.142Z,0
2016-12-25T00:47:40.192Z,0
2016-12-25T00:48:41.464Z,0
2016-12-25T00:49:40.519Z,0
2016-12-25T00:50:40.260Z,0
2016-12-25T00:51:40.787Z,0
2016-12-25T00:52:39.921Z,0
2016-12-25T00:53:39.922Z,0
2016-12-25T00:54:40.188Z,0
2016-12-25T00:55:39.930Z,0
2016-12-25T00:56:40.300Z,0
2016-12-25T00:57:40.518Z,0
2016-12-25T00:58:40.218Z,0
2016-12-25T00:59:41.533Z,0
2016-12-25T01:00:40.539Z,0
2016-12-25T01:01:40.468Z,0
2016-12-25T01:02:40.550Z,0
2016-12-25T01:03:39.981Z,0
2016-12-25T01:04:40.626Z,0
2016-12-25T01:05:40.567Z,0
2016-12-25T01:06:40.004Z,0
2016-12-25T01:07:40.265Z,0
2016-12-25T01:08:40.591Z,0
2016-12-25T01:09:40.584Z,0
2016-12-25T01:10:41.632Z,0
2016-12-25T01:11:40.659Z,0
2016-12-25T01:12:40.497Z,0
2016-12-25T01:13:39.736Z,0
2016-12-25T01:14:40.012Z,0
2016-12-25T01:15:40.321Z,0
2016-12-25T01:16:40.441Z,0
2016-12-25T01:17:40.344Z,0
2016-12-25T01:18:40.027Z,0
2016-12-25T01:19:40.401Z,0
2016-12-25T01:20:40.720Z,0
2016-12-25T01:21:41.712Z,0
2016-12-25T01:22:40.419Z,0
2016-12-25T01:23:40.673Z,0
2016-12-25T01:24:40.699Z,0
2016-12-25T01:25:40.426Z,0
2016-12-25T01:26:39.764Z,0
2016-12-25T01:27:40.396Z,0
2016-12-25T01:28:40.192Z,0
2016-12-25T01:29:40.724Z,0
2016-12-25T01:30:40.416Z,0
2016-12-25T01:31:40.476Z,0
2016-12-25T01:32:41.209Z,0
2016-12-25T01:33:39.864Z,0
2016-12-25T01:34:40.480Z,0
2016-12-25T01:35:40.219Z,0
2016-12-25T01:36:41.399Z,0
2016-12-25T01:37:40.149Z,0
2016-12-25T01:38:40.883Z,0
2016-12-25T01:39:40.478Z,0
2016-12-25T01:40:39.905Z,0
2016-12-25T01:41:40.234Z,0
2016-12-25T01:42:40.808Z,0
2016-12-25T01:43:41.054Z,0
2016-12-25T01:44:40.508Z,0
2016-12-25T01:45:40.362Z,0
2016-12-25T01:46:40.245Z,0
2016-12-25T01:47:41.687Z,0
2016-12-25T01:48:40.535Z,0
2016-12-25T01:49:40.542Z,0
2016-12-25T01:50:40.240Z,0
2016-12-25T01:51:40.244Z,0
2016-12-25T01:52:40.356Z,0
2016-12-25T01:53:40.304Z,0
2016-12-25T01:54:39.998Z,0
2016-12-25T01:55:40.892Z,0
2016-12-25T01:56:40.161Z,0
2016-12-25T01:57:40.287Z,0
2016-12-25T01:58:41.836Z,0
2016-12-25T01:59:40.294Z,0
2016-12-25T02:00:40.923Z,0
2016-12-25T02:01:40.355Z,0
2016-12-25T02:02:40.626Z,0
2016-12-25T02:03:40.989Z,0
2016-12-25T02:04:40.949Z,0
2016-12-25T02:05:40.647Z,0
2016-12-25T02:06:40.704Z,0
2016-12-25T02:07:40.703Z,0
2016-12-25T02:08:40.764Z,0
2016-12-25T02:09:41.872Z,0
2016-12-25T02:10:40.675Z,0
2016-12-25T02:11:40.782Z,0
2016-12-25T02:12:41.131Z,0
2016-12-25T02:13:40.433Z,0
2016-12-25T02:14:40.487Z,0
2016-12-25T02:15:40.540Z,0
2016-12-25T02:16:40.765Z,0
2016-12-25T02:17:40.771Z,0
2016-12-25T02:18:40.411Z,0
2016-12-25T02:19:40.730Z,0
2016-12-25T02:20:41.298Z,0
2016-12-25T02:21:40.843Z,0
2016-12-25T02:22:40.441Z,0
2016-12-25T02:23:41.174Z,0
2016-12-25T02:24:40.765Z,0
2016-12-25T02:25:40.531Z,0
2016-12-25T02:26:40.515Z,0
2016-12-25T02:27:40.574Z,0
2016-12-25T02:28:40.843Z,0
2016-12-25T02:29:40.800Z,0
2016-12-25T02:30:40.804Z,0
2016-12-25T02:31:41.800Z,0
2016-12-25T02:32:40.653Z,0
2016-12-25T02:33:40.870Z,0
2016-12-25T02:34:40.517Z,0
2016-12-25T02:35:40.932Z,0
2016-12-25T02:36:41.158Z,0
2016-12-25T02:37:40.845Z,0
2016-12-25T02:38:41.010Z,0
2016-12-25T02:39:40.548Z,0
2016-12-25T02:40:40.965Z,0
2016-12-25T02:41:40.609Z,0
2016-12-25T02:42:41.118Z,0
2016-12-25T02:43:41.193Z,0
2016-12-25T02:44:42.488Z,0
2016-12-25T02:45:40.587Z,0
2016-12-25T02:46:41.269Z,0
2016-12-25T02:47:40.635Z,0
2016-12-25T02:48:41.229Z,0
2016-12-25T02:49:40.640Z,0
2016-12-25T02:50:40.349Z,0
2016-12-25T02:51:40.997Z,0
2016-12-25T02:52:41.091Z,0
2016-12-25T02:53:41.248Z,0
2016-12-25T02:54:41.266Z,0
2016-12-25T02:55:42.684Z,0
2016-12-25T02:56:40.755Z,0
2016-12-25T02:57:40.710Z,0
2016-12-25T02:58:40.664Z,0
2016-12-25T02:59:41.397Z,0
2016-12-25T03:00:41.241Z,0
2016-12-25T03:01:40.786Z,0
2016-12-25T03:02:41.467Z,0
2016-12-25T03:03:41.012Z,0
2016-12-25T03:04:41.384Z,0
2016-12-25T03:05:41.021Z,0
2016-12-25T03:06:42.330Z,0
2016-12-25T03:07:41.084Z,0
2016-12-25T03:08:41.245Z,0
2016-12-25T03:09:40.785Z,0
2016-12-25T03:10:40.739Z,0
2016-12-25T03:11:40.798Z,0
2016-12-25T03:12:41.382Z,0
2016-12-25T03:13:40.762Z,0
2016-12-25T03:14:41.398Z,0
2016-12-25T03:15:41.137Z,0
2016-12-25T03:16:41.094Z,0
2016-12-25T03:17:42.005Z,0
2016-12-25T03:18:41.469Z,0
2016-12-25T03:19:41.170Z,0
2016-12-25T03:20:41.125Z,0
2016-12-25T03:21:41.125Z,0
2016-12-25T03:22:41.501Z,0
2016-12-25T03:23:40.924Z,0
2016-12-25T03:24:41.559Z,0
2016-12-25T03:25:41.148Z,0
2016-12-25T03:26:41.544Z,0
2016-12-25T03:27:41.211Z,0
2016-12-25T03:28:41.559Z,0
2016-12-25T03:29:41.176Z,0
2016-12-25T03:30:41.203Z,0
2016-12-25T03:31:41.264Z,0
2016-12-25T03:32:40.934Z,0
2016-12-25T03:33:41.267Z,0
2016-12-25T03:34:40.897Z,0
2016-12-25T03:35:40.955Z,0
2016-12-25T03:36:41.272Z,0
2016-12-25T03:37:41.961Z,0
2016-12-25T03:38:40.933Z,0
2016-12-25T03:39:41.157Z,0
2016-12-25T03:40:41.035Z,0
2016-12-25T03:41:41.039Z,0
2016-12-25T03:42:41.273Z,0
2016-12-25T03:43:41.049Z,0
2016-12-25T03:44:41.611Z,0
2016-12-25T03:45:41.640Z,0
2016-12-25T03:46:42.223Z,0
2016-12-25T03:47:41.040Z,0
2016-12-25T03:48:42.227Z,0
2016-12-25T03:49:41.360Z,0
2016-12-25T03:50:40.735Z,0
2016-12-25T03:51:41.019Z,0
2016-12-25T03:52:41.431Z,0
2016-12-25T03:53:41.120Z,0
2016-12-25T03:54:41.070Z,0
2016-12-25T03:55:41.859Z,0
2016-12-25T03:56:41.034Z,0
2016-12-25T03:57:41.824Z,0
2016-12-25T03:58:41.101Z,0
2016-12-25T03:59:40.895Z,0
2016-12-25T04:00:41.461Z,0
2016-12-25T04:01:41.457Z,0
2016-12-25T04:02:41.452Z,0
2016-12-25T04:03:41.084Z,0
2016-12-25T04:04:41.379Z,0
2016-12-25T04:05:41.468Z,0
2016-12-25T04:06:41.524Z,0
2016-12-25T04:07:41.850Z,0
2016-12-25T04:08:41.111Z,0
2016-12-25T04:09:41.614Z,0
2016-12-25T04:10:41.437Z,0
2016-12-25T04:11:41.820Z,0
2016-12-25T04:12:41.764Z,0
2016-12-25T04:13:42.550Z,0
2016-12-25T04:14:41.519Z,0
2016-12-25T04:15:41.859Z,0
2016-12-25T04:16:41.209Z,0
2016-12-25T04:17:41.164Z,0
2016-12-25T04:18:41.237Z,0
2016-12-25T04:19:41.176Z,0
2016-12-25T04:20:41.622Z,0
2016-12-25T04:21:41.292Z,0
2016-12-25T04:22:41.615Z,0
2016-12-25T04:23:41.884Z,0
2016-12-25T04:24:41.260Z,0
2016-12-25T04:25:42.035Z,0
2016-12-25T04:26:41.635Z,0
2016-12-25T04:27:41.700Z,0
2016-12-25T04:28:41.235Z,0
2016-12-25T04:29:42.529Z,0
2016-12-25T04:30:41.818Z,0
2016-12-25T04:31:41.248Z,0
2016-12-25T04:32:42.140Z,0
2016-12-25T04:33:41.894Z,0
2016-12-25T04:34:41.728Z,0
2016-12-25T04:35:41.640Z,0
2016-12-25T04:36:43.182Z,0
2016-12-25T04:37:41.339Z,0
2016-12-25T04:38:42.080Z,0
2016-12-25T04:39:41.637Z,0
2016-12-25T04:40:41.309Z,0
2016-12-25T04:41:41.484Z,0
2016-12-25T04:42:41.407Z,0
2016-12-25T04:43:42.924Z,0
2016-12-25T04:44:41.754Z,0
2016-12-25T04:45:43.478Z,0
2016-12-25T04:46:42.178Z,0
2016-12-25T04:47:41.828Z,0
2016-12-25T04:48:41.876Z,0
2016-12-25T04:49:42.090Z,0
2016-12-25T04:50:41.171Z,0
2016-12-25T04:51:41.792Z,0
2016-12-25T04:52:41.891Z,0
2016-12-25T04:53:42.334Z,0
2016-12-25T04:54:41.403Z,0
2016-12-25T04:55:41.837Z,0
2016-12-25T04:56:41.784Z,0
2016-12-25T04:57:42.177Z,0
2016-12-25T04:58:41.831Z,0
2016-12-25T04:59:42.092Z,0
2016-12-25T05:00:41.509Z,0
2016-12-25T05:01:41.847Z,0
2016-12-25T05:02:41.671Z,0
2016-12-25T05:03:41.800Z,0
2016-12-25T05:04:42.327Z,0
2016-12-25T05:05:41.885Z,0
2016-12-25T05:06:44.210Z,0
2016-12-25T05:07:41.626Z,0
2016-12-25T05:08:41.538Z,0
2016-12-25T05:09:41.902Z,0
2016-12-25T05:10:41.363Z,0
2016-12-25T05:11:42.239Z,0
2016-12-25T05:12:41.986Z,0
2016-12-25T05:13:42.715Z,0
2016-12-25T05:14:42.020Z,0
2016-12-25T05:15:42.287Z,0
2016-12-25T05:16:42.028Z,0
2016-12-25T05:17:42.444Z,0
2016-12-25T05:18:42.587Z,0
2016-12-25T05:19:41.641Z,0
2016-12-25T05:20:43.220Z,0
2016-12-25T05:21:41.964Z,0
2016-12-25T05:22:41.725Z,0
2016-12-25T05:23:41.994Z,0
2016-12-25T05:24:41.718Z,0
2016-12-25T05:25:42.178Z,0
2016-12-25T05:26:41.336Z,0
2016-12-25T05:27:42.993Z,0
2016-12-25T05:28:42.033Z,0
2016-12-25T05:29:41.825Z,0
2016-12-25T05:30:42.066Z,0
2016-12-25T05:31:41.811Z,0
2016-12-25T05:32:44.246Z,0
2016-12-25T05:33:41.730Z,0
2016-12-25T05:34:42.262Z,0
2016-12-25T05:35:42.075Z,0
2016-12-25T05:36:42.189Z,0
2016-12-25T05:37:42.449Z,0
2016-12-25T05:38:42.417Z,0
2016-12-25T05:39:41.899Z,0
2016-12-25T05:40:42.151Z,0
2016-12-25T05:41:42.149Z,0
2016-12-25T05:42:41.685Z,0
2016-12-25T05:43:42.447Z,0
2016-12-25T05:44:42.171Z,0
2016-12-25T05:45:42.081Z,0
2016-12-25T05:46:43.971Z,0
2016-12-25T05:47:41.919Z,0
2016-12-25T05:48:42.163Z,0
2016-12-25T05:49:41.910Z,0
2016-12-25T05:50:41.816Z,0
2016-12-25T05:51:42.260Z,0
2016-12-25T05:52:42.643Z,0
2016-12-25T05:53:42.022Z,0
2016-12-25T05:54:41.898Z,0
2016-12-25T05:55:42.591Z,0
2016-12-25T05:56:41.885Z,0
2016-12-25T05:57:42.552Z,0
2016-12-25T05:58:43.494Z,0
2016-12-25T05:59:42.660Z,0
2016-12-25T06:00:42.357Z,0
2016-12-25T06:01:41.976Z,0
2016-12-25T06:02:41.967Z,0
2016-12-25T06:03:42.259Z,0
2016-12-25T06:04:42.539Z,0
2016-12-25T06:05:42.677Z,0
2016-12-25T06:06:42.277Z,0
2016-12-25T06:07:42.323Z,0
2016-12-25T06:08:42.208Z,0
2016-12-25T06:09:42.845Z,0
2016-12-25T06:10:42.349Z,0
2016-12-25T06:11:41.601Z,0
2016-12-25T06:12:42.386Z,0
2016-12-25T06:13:42.709Z,0
2016-12-25T06:14:42.404Z,0
2016-12-25T06:15:42.179Z,0
2016-12-25T06:16:42.376Z,0
2016-12-25T06:17:42.759Z,0
2016-12-25T06:18:42.334Z,0
2016-12-25T06:19:43.180Z,0
2016-12-25T06:20:42.136Z,0
2016-12-25T06:21:42.400Z,0
2016-12-25T06:22:42.899Z,0
2016-12-25T06:23:42.392Z,0
2016-12-25T06:24:43.715Z,0
2016-12-25T06:25:42.432Z,0
2016-12-25T06:26:42.472Z,0
2016-12-25T06:27:42.468Z,0
2016-12-25T06:28:42.864Z,0
2016-12-25T06:29:42.930Z,0
2016-12-25T06:30:42.180Z,0
2016-12-25T06:31:42.971Z,0
2016-12-25T06:32:42.218Z,0
2016-12-25T06:33:42.847Z,0
2016-12-25T06:34:42.985Z,0
2016-12-25T06:35:42.539Z,0
2016-12-25T06:36:43.621Z,0
2016-12-25T06:37:42.633Z,0
2016-12-25T06:38:42.627Z,0
2016-12-25T06:39:43.067Z,0
2016-12-25T06:40:42.569Z,0
2016-12-25T06:41:43.749Z,0
2016-12-25T06:42:42.618Z,0
2016-12-25T06:43:42.621Z,0
2016-12-25T06:44:42.916Z,0
2016-12-25T06:45:42.994Z,0
2016-12-25T06:46:42.513Z,0
2016-12-25T06:47:42.491Z,0
2016-12-25T06:48:43.303Z,0
2016-12-25T06:49:42.304Z,0
2016-12-25T06:50:42.911Z,0
2016-12-25T06:51:42.596Z,0
2016-12-25T06:52:42.690Z,0
2016-12-25T06:53:44.701Z,0
2016-12-25T06:54:42.900Z,0
2016-12-25T06:55:42.661Z,0
2016-12-25T06:56:42.718Z,0
2016-12-25T06:57:42.819Z,0
2016-12-25T06:58:42.963Z,0
2016-12-25T06:59:42.755Z,0
2016-12-25T07:00:43.085Z,0
2016-12-25T07:01:42.243Z,0
2016-12-25T07:02:42.723Z,0
2016-12-25T07:03:42.685Z,0
2016-12-25T07:04:42.410Z,0
2016-12-25T07:05:43.100Z,0
2016-12-25T07:06:42.367Z,0
2016-12-25T07:07:42.759Z,0
2016-12-25T07:08:43.213Z,0
2016-12-25T07:09:42.797Z,0
2016-12-25T07:10:43.050Z,0
2016-12-25T07:11:43.127Z,0
2016-12-25T07:12:42.374Z,0
2016-12-25T07:13:42.095Z,0
2016-12-25T07:14:42.340Z,0
2016-12-25T07:15:42.701Z,0
2016-12-25T07:16:42.770Z,0
2016-12-25T07:17:42.442Z,0
2016-12-25T07:18:42.561Z,0
2016-12-25T07:19:43.096Z,0
2016-12-25T07:20:43.198Z,0
2016-12-25T07:21:42.907Z,0
2016-12-25T07:22:42.805Z,0
2016-12-25T07:23:43.243Z,0
2016-12-25T07:24:42.911Z,0
2016-12-25T07:25:43.776Z,0
2016-12-25T07:26:42.831Z,0
2016-12-25T07:27:42.929Z,0
2016-12-25T07:28:42.854Z,0
2016-12-25T07:29:42.974Z,0
2016-12-25T07:30:43.537Z,0
2016-12-25T07:31:43.089Z,0
2016-12-25T07:32:43.173Z,0
2016-12-25T07:33:43.103Z,0
2016-12-25T07:34:43.161Z,0
2016-12-25T07:35:43.348Z,4
2016-12-25T07:36:43.212Z,4
2016-12-25T07:37:43.004Z,4
2016-12-25T07:38:42.901Z,4
2016-12-25T07:39:43.048Z,4
2016-12-25T07:40:42.949Z,4
2016-12-25T07:41:42.999Z,4
2016-12-25T07:42:43.406Z,4
2016-12-25T07:43:43.364Z,4
2016-12-25T07:44:42.975Z,0
2016-12-25T07:45:42.659Z,0
2016-12-25T07:46:43.190Z,4
2016-12-25T07:47:42.950Z,4
2016-12-25T07:48:43.712Z,4
2016-12-25T07:49:42.995Z,4
2016-12-25T07:50:42.317Z,4
2016-12-25T07:51:42.268Z,4
2016-12-25T07:52:43.229Z,4
2016-12-25T07:53:43.337Z,4
2016-12-25T07:54:43.084Z,8
2016-12-25T07:55:42.712Z,8
2016-12-25T07:56:42.784Z,4
2016-12-25T07:57:42.672Z,4
2016-12-25T07:58:44.582Z,4
2016-12-25T07:59:43.144Z,4
2016-12-25T08:00:43.348Z,4
2016-12-25T08:01:42.711Z,8
2016-12-25T08:02:43.146Z,8
2016-12-25T08:03:42.400Z,8
2016-12-25T08:04:43.073Z,8
2016-12-25T08:05:43.360Z,8
2016-12-25T08:06:43.222Z,8
2016-12-25T08:07:42.987Z,8
2016-12-25T08:08:43.002Z,8
2016-12-25T08:09:43.072Z,8
2016-12-25T08:10:43.190Z,12
2016-12-25T08:11:43.269Z,8
2016-12-25T08:12:42.734Z,8
2016-12-25T08:13:43.067Z,12
2016-12-25T08:14:43.164Z,12
2016-12-25T08:15:43.153Z,12
2016-12-25T08:16:43.202Z,12
2016-12-25T08:17:43.089Z,16
2016-12-25T08:18:43.442Z,12
2016-12-25T08:19:42.871Z,16
2016-12-25T08:20:42.880Z,12
2016-12-25T08:21:42.863Z,16
2016-12-25T08:22:44.117Z,12
2016-12-25T08:23:43.271Z,20
2016-12-25T08:24:42.849Z,24
2016-12-25T08:25:43.282Z,24
2016-12-25T08:26:43.153Z,24
2016-12-25T08:27:43.714Z,20
2016-12-25T08:28:43.710Z,24
2016-12-25T08:29:43.279Z,24
2016-12-25T08:30:42.946Z,28
2016-12-25T08:31:42.986Z,32
2016-12-25T08:32:43.304Z,32
2016-12-25T08:33:43.282Z,28
2016-12-25T08:34:43.615Z,28
2016-12-25T08:35:43.927Z,28
2016-12-25T08:36:43.273Z,28
2016-12-25T08:37:42.992Z,28
2016-12-25T08:38:43.277Z,24
2016-12-25T08:39:43.826Z,24
2016-12-25T08:40:43.622Z,28
2016-12-25T08:41:43.305Z,32
2016-12-25T08:42:43.527Z,36
2016-12-25T08:43:43.311Z,36
2016-12-25T08:44:43.173Z,32
2016-12-25T08:45:43.670Z,44
2016-12-25T08:46:43.361Z,40
2016-12-25T08:47:43.613Z,44
2016-12-25T08:48:43.339Z,52
2016-12-25T08:49:43.139Z,40
2016-12-25T08:50:43.659Z,44
2016-12-25T08:51:43.389Z,44
2016-12-25T08:52:43.479Z,40
2016-12-25T08:53:43.435Z,48
2016-12-25T08:54:43.058Z,60
2016-12-25T08:55:43.186Z,56
2016-12-25T08:56:43.435Z,60
2016-12-25T08:57:43.124Z,64
2016-12-25T08:58:43.776Z,52
2016-12-25T08:59:44.936Z,64
2016-12-25T09:00:43.788Z,76
2016-12-25T09:01:43.440Z,72
2016-12-25T09:02:45.593Z,72
2016-12-25T09:03:43.012Z,72
2016-12-25T09:04:42.956Z,60
2016-12-25T09:05:44.856Z,68
2016-12-25T09:06:43.473Z,60
2016-12-25T09:07:43.354Z,64
2016-12-25T09:08:43.966Z,56
2016-12-25T09:09:43.421Z,56
2016-12-25T09:10:43.841Z,60
2016-12-25T09:11:43.562Z,56
2016-12-25T09:12:43.529Z,64
2016-12-25T09:13:44.437Z,64
2016-12-25T09:14:43.263Z,72
2016-12-25T09:15:43.164Z,64
2016-12-25T09:16:43.814Z,76
2016-12-25T09:17:43.486Z,72
2016-12-25T09:18:43.585Z,76
2016-12-25T09:19:43.533Z,84
2016-12-25T09:20:43.071Z,92
2016-12-25T09:21:43.206Z,80
2016-12-25T09:22:43.284Z,96
2016-12-25T09:23:43.307Z,104
2016-12-25T09:24:43.304Z,104
2016-12-25T09:25:44.172Z,88
2016-12-25T09:26:43.874Z,96
2016-12-25T09:27:43.892Z,100
2016-12-25T09:28:44.015Z,88
2016-12-25T09:29:43.969Z,72
2016-12-25T09:30:43.682Z,80
2016-12-25T09:31:43.884Z,96
2016-12-25T09:32:43.723Z,92
2016-12-25T09:33:43.272Z,88
2016-12-25T09:34:43.280Z,80
2016-12-25T09:35:43.989Z,84
2016-12-25T09:36:43.649Z,76
2016-12-25T09:37:43.943Z,72
2016-12-25T09:38:44.141Z,80
2016-12-25T09:39:44.025Z,84
2016-12-25T09:40:43.021Z,80
2016-12-25T09:41:43.346Z,76
2016-12-25T09:42:43.361Z,88
2016-12-25T09:43:43.305Z,76
2016-12-25T09:44:43.503Z,92
2016-12-25T09:45:44.049Z,88
2016-12-25T09:46:43.683Z,104
2016-12-25T09:47:43.170Z,116
2016-12-25T09:48:43.670Z,104
2016-12-25T09:49:44.431Z,112
2016-12-25T09:50:43.872Z,100
2016-12-25T09:51:43.534Z,92
2016-12-25T09:52:43.700Z,96
2016-12-25T09:53:43.820Z,96
2016-12-25T09:54:43.499Z,76
2016-12-25T09:55:43.803Z,88
2016-12-25T09:56:43.312Z,88
2016-12-25T09:57:43.804Z,108
2016-12-25T09:58:43.473Z,92
2016-12-25T09:59:43.551Z,88
2016-12-25T10:00:44.165Z,88
2016-12-25T10:01:44.251Z,88
2016-12-25T10:02:44.189Z,80
2016-12-25T10:03:43.937Z,88
2016-12-25T10:04:43.165Z,84
2016-12-25T10:05:44.020Z,84
2016-12-25T10:06:43.856Z,72
2016-12-25T10:07:43.541Z,84
2016-12-25T10:08:43.716Z,80
2016-12-25T10:09:43.919Z,80
2016-12-25T10:10:43.566Z,84
2016-12-25T10:11:43.497Z,88
2016-12-25T10:12:44.147Z,96
2016-12-25T10:13:43.854Z,92
2016-12-25T10:14:43.563Z,92
2016-12-25T10:15:43.564Z,92
2016-12-25T10:16:43.979Z,84
2016-12-25T10:17:43.803Z,96
2016-12-25T10:18:44.150Z,76
2016-12-25T10:19:43.841Z,80
2016-12-25T10:20:43.193Z,80
2016-12-25T10:21:44.104Z,84
2016-12-25T10:22:44.231Z,88
2016-12-25T10:23:44.371Z,92
2016-12-25T10:24:43.603Z,96
2016-12-25T10:25:44.209Z,92
2016-12-25T10:26:43.932Z,100
2016-12-25T10:27:43.692Z,104
2016-12-25T10:28:43.862Z,104
2016-12-25T10:29:43.987Z,100
2016-12-25T10:30:43.913Z,104
2016-12-25T10:31:43.938Z,104
2016-12-25T10:32:43.958Z,88
2016-12-25T10:33:43.917Z,88
2016-12-25T10:34:44.123Z,92
2016-12-25T10:35:43.989Z,88
2016-12-25T10:36:43.830Z,88
2016-12-25T10:37:43.896Z,88
2016-12-25T10:38:43.708Z,84
2016-12-25T10:39:43.834Z,96
2016-12-25T10:40:44.034Z,76
2016-12-25T10:41:43.958Z,76
2016-12-25T10:42:44.608Z,84
2016-12-25T10:43:43.340Z,88
2016-12-25T10:44:44.714Z,84
2016-12-25T10:45:44.204Z,112
2016-12-25T10:46:43.842Z,92
2016-12-25T10:47:44.315Z,84
2016-12-25T10:48:44.063Z,84
2016-12-25T10:49:44.399Z,76
2016-12-25T10:50:44.473Z,80
2016-12-25T10:51:44.552Z,76
2016-12-25T10:52:44.460Z,80
2016-12-25T10:53:44.610Z,84
2016-12-25T10:54:44.350Z,76
2016-12-25T10:55:44.253Z,80
2016-12-25T10:56:44.331Z,80
2016-12-25T10:57:43.878Z,80
2016-12-25T10:58:43.897Z,84
2016-12-25T10:59:43.725Z,80
2016-12-25T11:00:43.861Z,84
2016-12-25T11:01:44.595Z,88
2016-12-25T11:02:43.818Z,84
2016-12-25T11:03:43.883Z,80
2016-12-25T11:04:44.692Z,88
2016-12-25T11:05:43.703Z,80
2016-12-25T11:06:43.864Z,80
2016-12-25T11:07:44.070Z,84
2016-12-25T11:08:44.087Z,72
2016-12-25T11:09:43.784Z,64
2016-12-25T11:10:43.760Z,56
2016-12-25T11:11:43.853Z,56
2016-12-25T11:12:43.855Z,64
2016-12-25T11:13:43.659Z,64
2016-12-25T11:14:44.342Z,68
2016-12-25T11:15:44.578Z,68
2016-12-25T11:16:43.835Z,80
2016-12-25T11:17:44.543Z,80
2016-12-25T11:18:44.753Z,92
2016-12-25T11:19:43.914Z,88
2016-12-25T11:20:43.952Z,96
2016-12-25T11:21:44.318Z,100
2016-12-25T11:22:44.074Z,88
2016-12-25T11:23:44.449Z,84
2016-12-25T11:24:44.552Z,84
2016-12-25T11:25:44.428Z,76
2016-12-25T11:26:44.195Z,84
2016-12-25T11:27:43.991Z,76
2016-12-25T11:28:43.976Z,84
2016-12-25T11:29:44.665Z,88
2016-12-25T11:30:44.313Z,80
2016-12-25T11:31:43.980Z,80
2016-12-25T11:32:44.347Z,76
2016-12-25T11:33:44.046Z,76
2016-12-25T11:34:44.511Z,84
2016-12-25T11:35:44.856Z,80
2016-12-25T11:36:44.323Z,72
2016-12-25T11:37:44.057Z,76
2016-12-25T11:38:44.033Z,76
2016-12-25T11:39:44.083Z,84
2016-12-25T11:40:44.331Z,80
2016-12-25T11:41:44.259Z,76
2016-12-25T11:42:44.732Z,80
2016-12-25T11:43:44.252Z,72
2016-12-25T11:44:43.945Z,80
2016-12-25T11:45:44.317Z,80
2016-12-25T11:55:03.582Z,76
2016-12-25T11:56:03.224Z,68
2016-12-25T11:57:04.261Z,68
2016-12-25T11:58:04.169Z,84
2016-12-25T11:59:04.345Z,92
2016-12-25T12:00:04.184Z,104
2016-12-25T12:01:03.569Z,116
2016-12-25T12:02:03.884Z,100
2016-12-25T12:03:04.254Z,84
2016-12-25T12:04:03.899Z,88
2016-12-25T12:05:04.265Z,88
2016-12-25T12:06:04.271Z,88
2016-12-25T12:07:03.912Z,84
2016-12-25T12:08:03.927Z,76
2016-12-25T12:09:03.878Z,72
2016-12-25T12:10:03.622Z,68
2016-12-25T12:11:04.256Z,72
2016-12-25T12:12:03.896Z,76
2016-12-25T12:13:03.905Z,68
2016-12-25T12:14:03.693Z,76
2016-12-25T12:15:03.965Z,76
2016-12-25T12:16:04.019Z,72
2016-12-25T12:17:03.660Z,76
2016-12-25T12:18:04.031Z,72
2016-12-25T12:19:05.274Z,72
2016-12-25T12:20:03.630Z,72
2016-12-25T12:21:04.854Z,68
2016-12-25T12:22:03.748Z,72
2016-12-25T12:23:04.020Z,76
2016-12-25T12:24:04.330Z,72
2016-12-25T12:25:03.353Z,68
2016-12-25T12:26:04.643Z,72
2016-12-25T12:27:03.778Z,68
2016-12-25T12:28:03.677Z,68
2016-12-25T12:29:03.684Z,76
2016-12-25T12:30:05.009Z,72
2016-12-25T12:31:04.070Z,76
2016-12-25T12:32:04.259Z,72
2016-12-25T12:33:04.132Z,84
2016-12-25T12:34:03.719Z,92
2016-12-25T12:35:04.108Z,84
2016-12-25T12:36:04.044Z,76
2016-12-25T12:37:03.787Z,72
2016-12-25T12:38:04.470Z,72
2016-12-25T12:39:05.101Z,84
2016-12-25T12:40:03.754Z,108
2016-12-25T12:41:04.684Z,136
2016-12-25T12:42:04.491Z,104
2016-12-25T12:43:04.448Z,88
2016-12-25T12:44:04.503Z,76
2016-12-25T12:45:03.785Z,68
2016-12-25T12:46:04.104Z,72
2016-12-25T12:47:03.945Z,80
2016-12-25T12:48:04.113Z,84
2016-12-25T12:49:03.857Z,76
2016-12-25T12:50:04.926Z,72
2016-12-25T12:51:04.181Z,72
2016-12-25T12:52:04.489Z,76
2016-12-25T12:53:04.243Z,68
2016-12-25T12:54:04.197Z,72
2016-12-25T12:55:03.950Z,68
2016-12-25T12:56:04.476Z,68
2016-12-25T12:57:04.269Z,68
2016-12-25T12:58:04.225Z,72
2016-12-25T12:59:04.543Z,80
2016-12-25T13:00:04.188Z,76
2016-12-25T13:01:04.031Z,68
2016-12-25T13:02:03.987Z,60
2016-12-25T13:03:04.306Z,56
2016-12-25T13:04:04.261Z,64
2016-12-25T13:05:05.633Z,60
2016-12-25T13:06:04.011Z,68
2016-12-25T13:07:04.226Z,68
2016-12-25T13:08:04.283Z,64
2016-12-25T13:09:03.979Z,60
2016-12-25T13:10:04.347Z,56
2016-12-25T13:11:04.304Z,60
2016-12-25T13:12:04.574Z,72
2016-12-25T13:13:04.308Z,80
2016-12-25T13:14:04.345Z,76
2016-12-25T13:15:04.278Z,76
2016-12-25T13:16:05.042Z,76
2016-12-25T13:17:03.715Z,72
2016-12-25T13:18:04.345Z,68
2016-12-25T13:19:04.745Z,76
2016-12-25T13:20:04.408Z,80
2016-12-25T13:21:04.050Z,80
2016-12-25T13:22:03.772Z,76
2016-12-25T13:23:03.798Z,68
2016-12-25T13:24:04.431Z,68
2016-12-25T13:25:04.085Z,68
2016-12-25T13:26:04.186Z,64
2016-12-25T13:27:04.785Z,72
2016-12-25T13:28:04.193Z,68
2016-12-25T13:29:04.462Z,68
2016-12-25T13:30:04.369Z,68
2016-12-25T13:31:04.113Z,76
2016-12-25T13:32:04.065Z,80
2016-12-25T13:33:04.157Z,64
2016-12-25T13:34:04.709Z,68
2016-12-25T13:35:04.452Z,76
2016-12-25T13:36:05.911Z,72
2016-12-25T13:37:04.124Z,80
2016-12-25T13:38:04.705Z,76
2016-12-25T13:39:04.109Z,68
2016-12-25T13:40:04.482Z,72
2016-12-25T13:41:04.486Z,60
2016-12-25T13:42:04.176Z,52
2016-12-25T13:43:04.136Z,56
2016-12-25T13:44:04.500Z,60
2016-12-25T13:45:05.909Z,52
2016-12-25T13:46:04.516Z,44
2016-12-25T13:47:05.720Z,44
2016-12-25T13:48:04.787Z,44
2016-12-25T13:49:04.506Z,40
2016-12-25T13:50:04.541Z,36
2016-12-25T13:51:04.858Z,36
2016-12-25T13:52:04.919Z,32
2016-12-25T13:53:04.346Z,32
2016-12-25T13:54:04.214Z,28
2016-12-25T13:55:04.327Z,32
2016-12-25T13:56:05.585Z,32
2016-12-25T13:57:04.581Z,36
2016-12-25T13:58:05.098Z,36
2016-12-25T13:59:04.283Z,32
2016-12-25T14:00:04.548Z,32
2016-12-25T14:01:04.247Z,36
2016-12-25T14:02:04.913Z,36
2016-12-25T14:03:04.253Z,36
2016-12-25T14:04:04.571Z,44
2016-12-25T14:05:04.270Z,44
2016-12-25T14:06:04.324Z,36
2016-12-25T14:07:04.988Z,40
2016-12-25T14:08:04.385Z,40
2016-12-25T14:09:04.695Z,40
2016-12-25T14:10:04.711Z,44
2016-12-25T14:11:04.679Z,44
2016-12-25T14:12:04.359Z,40
2016-12-25T14:13:04.680Z,44
2016-12-25T14:14:04.688Z,40
2016-12-25T14:15:04.335Z,40
2016-12-25T14:16:05.044Z,36
2016-12-25T14:17:04.706Z,40
2016-12-25T14:18:04.718Z,40
2016-12-25T14:19:05.085Z,40
2016-12-25T14:20:06.281Z,36
2016-12-25T14:21:04.681Z,36
2016-12-25T14:22:05.848Z,32
2016-12-25T14:23:04.377Z,32
2016-12-25T14:24:04.746Z,28
2016-12-25T14:25:04.750Z,28
2016-12-25T14:26:04.959Z,32
2016-12-25T14:27:05.082Z,32
2016-12-25T14:28:04.768Z,28
2016-12-25T14:29:05.187Z,32
2016-12-25T14:30:04.472Z,32
2016-12-25T14:31:06.258Z,28
2016-12-25T14:32:04.482Z,28
2016-12-25T14:33:05.401Z,32
2016-12-25T14:34:04.857Z,24
2016-12-25T14:35:04.764Z,28
2016-12-25T14:36:04.509Z,28
2016-12-25T14:37:04.775Z,28
2016-12-25T14:38:04.622Z,28
2016-12-25T14:39:04.893Z,28
2016-12-25T14:40:04.526Z,24
2016-12-25T14:41:05.116Z,24